Time;durP1;ratioP1;P1;durP2;ratioP2;P2;SDS_P1;SDS_P2;PMS_P1;PMS_P2;Temp;Humidity;BMP_temperature;BMP_pressure;BME280_temperature;BME280_humidity;BME280_pressure;Samples;Min_cycle;Max_cycle;Signal;HPM_P1;HPM_P2
2023/07/07 00:00:51;;;;;;;13.18;8.50;;;;;;;26.05;87.71;100068.72;5033500;28;20025;-64
2023/07/07 00:03:16;;;;;;;11.98;8.20;;;;;;;26.10;87.20;100075.59;5033759;28;20029;-68
2023/07/07 00:05:45;;;;;;;9.65;7.40;;;;;;;26.19;86.64;100068.28;5033722;28;20112;-65
2023/07/07 00:08:11;;;;;;;9.55;8.32;;;;;;;26.23;86.05;100068.13;5033540;28;20040;-65
2023/07/07 00:10:42;;;;;;;9.88;8.45;;;;;;;26.30;86.35;100071.41;5024996;28;20034;-67
2023/07/07 00:13:09;;;;;;;10.95;8.05;;;;;;;26.22;86.56;100065.50;5013797;28;20085;-65
2023/07/07 00:15:34;;;;;;;11.98;8.10;;;;;;;26.30;86.01;100061.69;5013701;28;20443;-65
2023/07/07 00:17:59;;;;;;;11.00;8.20;;;;;;;26.37;86.68;100061.47;5013419;28;20026;-66
2023/07/07 00:20:25;;;;;;;10.57;8.23;;;;;;;26.40;87.43;100066.66;5013202;28;20025;-63
2023/07/07 00:22:50;;;;;;;8.35;7.45;;;;;;;26.35;87.88;100058.88;5013604;28;20076;-70
2023/07/07 00:25:18;;;;;;;9.70;8.20;;;;;;;26.22;87.77;100058.47;5013540;28;20038;-70
2023/07/07 00:27:44;;;;;;;10.70;8.70;;;;;;;26.21;87.82;100056.72;5013165;28;20455;-67
2023/07/07 00:30:10;;;;;;;12.57;7.80;;;;;;;26.20;87.95;100060.28;5013132;28;20033;-66
2023/07/07 00:32:36;;;;;;;9.85;8.13;;;;;;;26.19;88.17;100058.53;5013346;28;20076;-63
2023/07/07 00:35:01;;;;;;;8.75;7.60;;;;;;;25.91;87.10;100061.25;5013179;28;20038;-64
2023/07/07 00:37:26;;;;;;;10.32;7.78;;;;;;;25.83;86.98;100057.06;5013518;28;20029;-63
2023/07/07 00:39:52;;;;;;;10.70;7.90;;;;;;;25.55;89.20;100054.47;5013234;28;20087;-64
2023/07/07 00:42:17;;;;;;;9.02;8.13;;;;;;;25.10;91.39;100068.16;5013110;28;20588;-66
2023/07/07 00:45:13;;;;;;;11.15;7.90;;;;;;;25.16;92.35;100066.19;5013550;28;20095;-67
2023/07/07 00:48:04;;;;;;;9.23;8.23;;;;;;;24.97;92.46;100034.19;5013225;28;20037;-67
2023/07/07 00:50:45;;;;;;;13.68;8.30;;;;;;;25.27;92.25;100059.69;5012427;28;20041;-68
2023/07/07 00:53:12;;;;;;;10.32;8.50;;;;;;;25.42;92.06;100061.91;5013053;28;20109;-63
2023/07/07 00:55:43;;;;;;;9.25;8.10;;;;;;;25.57;91.01;100060.56;5012831;28;20045;-67
2023/07/07 00:58:13;;;;;;;11.07;7.68;;;;;;;25.33;90.65;100072.72;5013172;28;20115;-67
2023/07/07 01:00:42;;;;;;;9.57;7.90;;;;;;;25.19;90.44;100073.16;5012679;28;20419;-65
2023/07/07 01:03:13;;;;;;;11.63;8.65;;;;;;;25.28;91.18;100077.28;5012638;28;20034;-67
2023/07/07 01:05:40;;;;;;;9.52;6.95;;;;;;;24.98;90.36;100082.56;5012729;28;20029;-67
2023/07/07 01:08:06;;;;;;;9.55;7.78;;;;;;;24.66;90.88;100043.00;5012591;28;20511;-70
2023/07/07 01:10:32;;;;;;;9.15;7.15;;;;;;;24.77;90.69;100074.34;5012341;28;20030;-64
2023/07/07 01:12:58;;;;;;;12.23;7.85;;;;;;;24.62;92.18;100072.97;5012558;28;20129;-69
2023/07/07 01:15:30;;;;;;;10.63;8.10;;;;;;;24.51;91.44;100051.28;5012738;28;20034;-68
2023/07/07 01:18:10;;;;;;;8.88;7.85;;;;;;;24.66;91.45;100079.94;5012059;28;20101;-66
2023/07/07 01:21:01;;;;;;;9.43;7.72;;;;;;;24.27;92.96;100074.78;5012188;28;20544;-63
2023/07/07 01:24:03;;;;;;;9.98;7.30;;;;;;;24.05;94.15;100074.47;5012209;28;20032;-65
2023/07/07 01:26:53;;;;;;;9.68;7.93;;;;;;;23.94;95.62;100080.03;5011036;28;20172;-63
2023/07/07 01:29:47;;;;;;;12.35;7.75;;;;;;;23.45;97.72;100060.06;5012003;28;20468;-64
2023/07/07 01:32:18;;;;;;;10.88;8.02;;;;;;;23.71;97.20;100080.53;5027173;28;20041;-65
2023/07/07 01:34:46;;;;;;;10.48;8.70;;;;;;;23.74;97.12;100078.69;5011778;28;20080;-66
2023/07/07 01:37:11;;;;;;;10.27;8.27;;;;;;;23.71;96.94;100067.34;5012148;28;20436;-63
2023/07/07 01:39:38;;;;;;;9.82;7.72;;;;;;;23.80;96.54;100064.50;5011969;28;20034;-63
2023/07/07 01:42:19;;;;;;;10.40;7.65;;;;;;;23.53;97.99;100072.16;5011767;28;20480;-67
2023/07/07 01:45:08;;;;;;;10.35;8.50;;;;;;;23.65;97.69;100067.50;5012023;28;20026;-63
2023/07/07 01:47:36;;;;;;;9.52;8.00;;;;;;;23.65;97.56;100065.75;5012090;28;20488;-63
2023/07/07 01:50:04;;;;;;;9.57;7.97;;;;;;;23.67;97.74;100069.19;5011719;28;20041;-68
2023/07/07 01:52:37;;;;;;;10.20;8.38;;;;;;;23.49;98.13;100070.50;5011670;28;20056;-66
2023/07/07 01:55:10;;;;;;;10.32;7.75;;;;;;;23.55;97.91;100065.09;5011979;28;20048;-68
2023/07/07 01:57:38;;;;;;;10.00;7.85;;;;;;;23.76;96.75;100070.75;5011451;28;20050;-64
2023/07/07 02:00:04;;;;;;;10.00;7.85;;;;;;;23.56;97.54;100061.56;5011708;28;20400;-70
2023/07/07 02:02:30;;;;;;;10.55;7.25;;;;;;;23.15;97.97;100033.47;5011763;28;20084;-64
2023/07/07 02:04:55;;;;;;;9.10;7.03;;;;;;;23.48;98.04;100070.50;5011719;28;20034;-67
2023/07/07 02:07:20;;;;;;;9.40;7.13;;;;;;;23.27;98.20;100075.38;5011682;28;20049;-65
2023/07/07 02:09:46;;;;;;;8.68;7.60;;;;;;;23.19;98.39;100072.91;5009852;28;20435;-66
2023/07/07 02:12:11;;;;;;;9.32;7.78;;;;;;;23.17;98.81;100079.13;5011297;28;20033;-67
2023/07/07 02:14:37;;;;;;;8.18;7.22;;;;;;;23.00;99.30;100069.75;5011108;28;20710;-64
2023/07/07 02:17:02;;;;;;;10.30;7.57;;;;;;;23.08;99.14;100052.03;5011164;28;20489;-65
2023/07/07 02:19:28;;;;;;;10.70;7.32;;;;;;;23.31;98.43;100074.41;5011634;28;20076;-68
2023/07/07 02:21:53;;;;;;;10.35;7.65;;;;;;;23.08;98.68;100041.50;5011135;28;20022;-67
2023/07/07 02:24:19;;;;;;;12.30;7.60;;;;;;;23.17;98.59;100058.91;5011022;28;20037;-69
2023/07/07 02:26:44;;;;;;;8.32;6.72;;;;;;;23.38;98.06;100067.25;5010789;28;20030;-69
2023/07/07 02:29:10;;;;;;;9.95;7.50;;;;;;;23.36;97.29;100055.88;5011280;28;20022;-66
2023/07/07 02:31:35;;;;;;;9.90;7.03;;;;;;;23.54;97.59;100063.34;5011065;28;20022;-71
2023/07/07 02:34:00;;;;;;;8.25;7.30;;;;;;;23.73;96.70;100070.84;5010921;28;20029;-65
2023/07/07 02:36:26;;;;;;;8.75;7.47;;;;;;;23.73;96.01;100049.75;5011010;28;20541;-63
2023/07/07 02:38:53;;;;;;;9.80;7.38;;;;;;;23.99;95.40;100078.13;5011016;28;20150;-66
2023/07/07 02:41:19;;;;;;;11.02;8.05;;;;;;;23.99;94.19;100070.22;5010510;28;20036;-65
2023/07/07 02:43:45;;;;;;;8.15;7.18;;;;;;;24.10;93.71;100074.34;5010942;28;20518;-69
2023/07/07 02:46:10;;;;;;;9.25;7.43;;;;;;;23.97;93.33;100055.34;5011122;28;20070;-63
2023/07/07 02:48:36;;;;;;;8.98;7.30;;;;;;;24.10;93.01;100072.59;5010863;28;20481;-70
2023/07/07 02:51:04;;;;;;;8.20;7.40;;;;;;;24.17;92.59;100068.88;5010619;28;20032;-64
2023/07/07 02:53:35;;;;;;;8.90;7.28;;;;;;;23.89;92.17;100037.06;5010847;28;20507;-67
2023/07/07 02:56:01;;;;;;;11.13;7.63;;;;;;;23.88;93.43;100045.88;5010983;28;20042;-68
2023/07/07 02:58:27;;;;;;;8.38;7.07;;;;;;;23.97;93.08;100079.06;5010872;28;20050;-64
2023/07/07 03:00:52;;;;;;;9.70;7.10;;;;;;;23.78;95.07;100083.91;5010948;28;20029;-68
2023/07/07 03:03:19;;;;;;;9.15;7.75;;;;;;;23.53;95.79;100085.34;5010661;28;20455;-67
2023/07/07 03:05:45;;;;;;;9.15;7.25;;;;;;;23.57;96.15;100080.84;5010393;28;20033;-64
2023/07/07 03:08:12;;;;;;;8.32;7.38;;;;;;;23.45;96.33;100083.78;5008987;28;20034;-63
2023/07/07 03:10:39;;;;;;;8.48;7.00;;;;;;;23.40;97.10;100091.78;5008907;28;20150;-66
2023/07/07 03:13:04;;;;;;;10.55;7.47;;;;;;;23.49;96.75;100088.94;5018889;28;20100;-66
2023/07/07 03:15:38;;;;;;;9.90;7.40;;;;;;;23.48;96.19;100089.84;5037459;28;20555;-67
2023/07/07 03:18:08;;;;;;;10.90;9.02;;;;;;;23.28;97.64;100090.28;5030196;28;20511;-64
2023/07/07 03:20:34;;;;;;;11.13;8.75;;;;;;;23.10;98.67;100092.38;5027881;28;20103;-67
2023/07/07 03:23:00;;;;;;;9.73;8.48;;;;;;;23.22;98.91;100106.22;5029743;28;20035;-67
2023/07/07 03:25:26;;;;;;;12.63;7.38;;;;;;;22.98;98.71;100095.28;5030066;28;20391;-63
2023/07/07 03:27:52;;;;;;;11.05;7.40;;;;;;;23.02;98.85;100102.19;5030226;28;20061;-69
2023/07/07 03:30:18;;;;;;;8.38;7.20;;;;;;;22.83;99.72;100069.25;5029920;28;20492;-69
2023/07/07 03:32:43;;;;;;;11.95;7.80;;;;;;;22.89;100.00;100105.97;5029980;28;20056;-63
2023/07/07 03:35:09;;;;;;;9.18;7.53;;;;;;;22.94;100.00;100104.09;5030237;28;20105;-62
2023/07/07 03:37:36;;;;;;;10.27;6.82;;;;;;;22.89;100.00;100071.75;5029462;28;20072;-62
2023/07/07 03:40:01;;;;;;;10.18;7.55;;;;;;;23.03;100.00;100108.31;5029794;28;20480;-65
2023/07/07 03:42:27;;;;;;;8.68;7.28;;;;;;;23.04;100.00;100105.69;5030021;28;20116;-64
2023/07/07 03:44:52;;;;;;;8.07;7.22;;;;;;;23.07;100.00;100089.81;5030096;28;20499;-64
2023/07/07 03:47:17;;;;;;;13.70;8.23;;;;;;;23.13;100.00;100066.88;5029833;28;20032;-67
2023/07/07 03:49:43;;;;;;;12.95;9.80;;;;;;;23.53;100.00;100109.03;5028343;28;20037;-66
2023/07/07 03:52:08;;;;;;;11.73;8.75;;;;;;;23.51;100.00;100109.97;5029842;28;20029;-64
2023/07/07 03:54:34;;;;;;;9.38;7.60;;;;;;;23.37;100.00;100078.69;5029823;28;20105;-68
2023/07/07 03:56:59;;;;;;;9.73;7.82;;;;;;;23.53;100.00;100074.78;5030022;28;20419;-62
2023/07/07 03:59:26;;;;;;;13.13;7.80;;;;;;;23.76;99.80;100105.00;5029739;28;20099;-67
2023/07/07 04:01:51;;;;;;;13.30;8.05;;;;;;;23.84;100.00;100104.81;5029769;28;20033;-70
2023/07/07 04:04:17;;;;;;;8.38;7.57;;;;;;;23.78;99.11;100102.34;5029997;28;20032;-66
2023/07/07 04:06:42;;;;;;;11.27;6.85;;;;;;;23.75;99.11;100106.78;5029401;28;20470;-64
2023/07/07 04:09:08;;;;;;;10.70;7.50;;;;;;;23.54;98.25;100067.75;5029422;28;20033;-66
2023/07/07 04:11:33;;;;;;;8.77;7.32;;;;;;;23.74;98.50;100107.69;5029642;28;20049;-62
2023/07/07 04:13:58;;;;;;;8.30;6.78;;;;;;;23.88;97.93;100106.50;5029525;28;20624;-66
2023/07/07 04:16:25;;;;;;;8.88;7.82;;;;;;;23.95;97.67;100094.94;5028353;28;20045;-63
2023/07/07 04:18:54;;;;;;;11.88;7.60;;;;;;;23.98;96.63;100102.75;5029528;28;20030;-66
2023/07/07 04:21:23;;;;;;;10.15;6.50;;;;;;;24.16;95.92;100108.47;5030811;28;20036;-64
2023/07/07 04:23:51;;;;;;;8.20;7.30;;;;;;;24.15;95.21;100105.00;5033009;28;20036;-67
2023/07/07 04:26:18;;;;;;;9.25;7.10;;;;;;;24.16;96.09;100112.00;5033266;28;20021;-66
2023/07/07 04:28:44;;;;;;;7.90;6.70;;;;;;;24.21;95.52;100098.69;5014354;28;20061;-65
2023/07/07 04:31:12;;;;;;;10.93;7.00;;;;;;;24.41;94.91;100119.25;5033371;28;20064;-63
2023/07/07 04:33:38;;;;;;;11.25;6.78;;;;;;;24.39;95.12;100114.03;5032744;28;20403;-65
2023/07/07 04:36:08;;;;;;;10.65;7.55;;;;;;;24.45;95.45;100122.69;5033378;28;20092;-68
2023/07/07 04:38:34;;;;;;;10.35;6.80;;;;;;;24.49;93.29;100121.72;5032788;28;20021;-70
2023/07/07 04:41:05;;;;;;;11.93;7.70;;;;;;;24.50;94.70;100123.44;5033136;28;20021;-70
2023/07/07 04:43:32;;;;;;;8.50;6.97;;;;;;;24.55;94.77;100126.84;5032817;28;20037;-64
2023/07/07 04:45:58;;;;;;;8.80;6.43;;;;;;;24.49;93.65;100124.38;5033047;28;20112;-65
2023/07/07 04:48:24;;;;;;;13.00;6.95;;;;;;;24.59;94.60;100125.00;5032509;28;20499;-64
2023/07/07 04:50:49;;;;;;;9.55;7.72;;;;;;;24.68;94.80;100127.41;5032845;28;20035;-64
2023/07/07 04:53:15;;;;;;;9.20;6.95;;;;;;;24.68;93.54;100125.63;5032834;28;20034;-67
2023/07/07 04:55:45;;;;;;;9.45;7.00;;;;;;;24.67;93.28;100130.94;5032621;28;20385;-68
2023/07/07 04:58:11;;;;;;;11.45;7.32;;;;;;;24.61;92.80;100131.97;5032792;28;20132;-63
2023/07/07 05:00:36;;;;;;;10.88;7.00;;;;;;;24.64;94.19;100121.31;5032617;28;20108;-64
2023/07/07 05:03:03;;;;;;;9.02;7.05;;;;;;;24.62;93.50;100128.38;5032344;28;20045;-67
2023/07/07 05:05:28;;;;;;;11.18;7.10;;;;;;;24.67;93.33;100133.59;5032494;28;20087;-68
2023/07/07 05:07:54;;;;;;;10.52;7.22;;;;;;;24.52;93.36;100138.34;5032520;28;20026;-64
2023/07/07 05:10:19;;;;;;;10.50;7.22;;;;;;;24.51;94.67;100133.09;5032503;28;20033;-68
2023/07/07 05:12:44;;;;;;;9.55;7.22;;;;;;;24.60;95.31;100130.22;5032284;28;20109;-65
2023/07/07 05:15:10;;;;;;;9.43;7.05;;;;;;;24.73;93.34;100135.22;5032499;28;20487;-66
2023/07/07 05:17:35;;;;;;;10.77;7.30;;;;;;;24.75;93.52;100138.66;5031897;28;20034;-64
2023/07/07 05:20:01;;;;;;;9.27;6.90;;;;;;;24.79;95.10;100113.91;5032303;28;20033;-65
2023/07/07 05:22:26;;;;;;;9.82;7.60;;;;;;;25.07;93.38;100128.97;5031791;28;20025;-67
2023/07/07 05:24:52;;;;;;;9.60;7.43;;;;;;;25.25;95.82;100128.44;5032252;28;20377;-63
2023/07/07 05:27:17;;;;;;;11.20;7.32;;;;;;;25.42;90.40;100140.31;5032360;28;20072;-64
2023/07/07 05:29:42;;;;;;;10.13;7.38;;;;;;;25.49;92.91;100136.59;5031700;28;20116;-65
2023/07/07 05:32:09;;;;;;;11.35;7.47;;;;;;;25.48;93.17;100121.63;5030285;28;20152;-64
2023/07/07 05:34:35;;;;;;;13.25;7.53;;;;;;;25.59;91.47;100143.31;5030194;28;20100;-67
2023/07/07 05:37:00;;;;;;;7.45;6.68;;;;;;;25.71;89.57;100141.19;5030508;28;20528;-63
2023/07/07 05:39:25;;;;;;;10.48;6.32;;;;;;;25.70;86.36;100150.06;5029697;28;20104;-69
2023/07/07 05:41:51;;;;;;;8.65;6.70;;;;;;;25.72;87.42;100153.50;5031457;28;20571;-69
2023/07/07 05:44:16;;;;;;;8.23;6.40;;;;;;;25.78;88.70;100138.34;5031615;28;20458;-63
2023/07/07 05:46:43;;;;;;;8.98;6.65;;;;;;;25.83;88.02;100154.03;5031848;28;20112;-63
2023/07/07 05:49:08;;;;;;;6.75;6.00;;;;;;;25.84;86.15;100145.19;5031429;28;20503;-63
2023/07/07 05:51:34;;;;;;;9.40;6.50;;;;;;;25.60;85.78;100115.97;5031792;28;20025;-70
2023/07/07 05:53:59;;;;;;;7.40;5.72;;;;;;;25.93;85.20;100152.84;5031678;28;20026;-68
2023/07/07 05:56:25;;;;;;;7.55;6.30;;;;;;;25.97;83.92;100140.38;5031775;28;20827;-64
2023/07/07 05:58:53;;;;;;;9.20;6.00;;;;;;;26.11;81.05;100150.56;5031184;28;20144;-67
2023/07/07 06:01:19;;;;;;;7.82;6.22;;;;;;;25.99;81.83;100154.41;5031026;28;20472;-63
2023/07/07 06:03:44;;;;;;;10.90;6.13;;;;;;;25.90;85.04;100115.91;5030229;28;20032;-68
2023/07/07 06:06:10;;;;;;;8.70;6.68;;;;;;;26.14;84.40;100142.50;5030143;28;20036;-66
2023/07/07 06:08:36;;;;;;;8.07;6.30;;;;;;;26.22;86.14;100143.13;5031368;28;20567;-66
2023/07/07 06:11:01;;;;;;;8.73;6.50;;;;;;;26.41;80.15;100150.44;5030923;28;20031;-63
2023/07/07 06:13:28;;;;;;;8.90;6.68;;;;;;;26.50;80.91;100143.97;5031270;28;20427;-70
2023/07/07 06:15:54;;;;;;;8.23;5.97;;;;;;;26.22;79.39;100084.03;5031200;28;20026;-67
2023/07/07 06:18:21;;;;;;;8.85;6.30;;;;;;;26.61;80.31;100137.38;5030999;28;20036;-66
2023/07/07 06:20:58;;;;;;;10.05;6.60;;;;;;;26.76;80.19;100149.25;5031078;28;20022;-64
2023/07/07 06:23:23;;;;;;;8.63;6.00;;;;;;;26.82;79.17;100150.81;5031045;28;20067;-68
2023/07/07 06:25:49;;;;;;;8.20;5.53;;;;;;;26.90;79.85;100148.75;5030933;28;20061;-68
2023/07/07 06:28:16;;;;;;;7.38;5.90;;;;;;;26.92;79.38;100154.84;5030992;28;20052;-64
2023/07/07 06:30:41;;;;;;;9.85;6.07;;;;;;;26.77;78.62;100126.28;5031036;28;20432;-66
2023/07/07 06:33:07;;;;;;;8.90;5.55;;;;;;;26.92;77.17;100149.56;5030836;28;20030;-67
2023/07/07 06:35:32;;;;;;;9.57;5.93;;;;;;;27.01;79.11;100155.44;5030972;28;20487;-64
2023/07/07 06:37:58;;;;;;;8.20;6.38;;;;;;;27.11;76.26;100159.50;5030660;28;20033;-64
2023/07/07 06:40:23;;;;;;;6.43;5.72;;;;;;;27.20;76.42;100153.84;5029225;28;20546;-64
2023/07/07 06:42:54;;;;;;;11.40;5.88;;;;;;;27.26;77.06;100150.94;5030410;28;20029;-67
2023/07/07 06:45:20;;;;;;;7.63;5.95;;;;;;;27.33;77.51;100126.88;5030962;28;20067;-65
2023/07/07 06:47:46;;;;;;;10.93;5.75;;;;;;;27.48;71.72;100151.94;5030650;28;20049;-69
2023/07/07 06:50:17;;;;;;;5.82;5.13;;;;;;;27.57;74.99;100141.84;5030589;28;20052;-66
2023/07/07 06:52:43;;;;;;;7.65;5.55;;;;;;;27.65;70.92;100140.69;5030768;28;20049;-66
2023/07/07 06:55:08;;;;;;;7.10;5.53;;;;;;;27.71;73.89;100140.47;5030738;28;20480;-67
2023/07/07 06:57:33;;;;;;;6.50;5.47;;;;;;;27.64;72.01;100138.97;5030432;28;20049;-67
2023/07/07 06:59:59;;;;;;;7.50;5.70;;;;;;;27.88;70.03;100145.09;5030364;28;20120;-66
2023/07/07 07:02:24;;;;;;;10.30;5.55;;;;;;;28.01;74.94;100137.50;5030410;28;20468;-67
2023/07/07 07:04:49;;;;;;;6.90;5.40;;;;;;;28.15;76.28;100147.56;5030193;28;20037;-64
2023/07/07 07:07:15;;;;;;;7.93;5.68;;;;;;;28.23;71.10;100140.16;5030454;28;20033;-67
2023/07/07 07:09:40;;;;;;;7.18;5.60;;;;;;;28.22;69.88;100141.09;5030572;28;20053;-66
2023/07/07 07:12:06;;;;;;;7.78;5.75;;;;;;;28.35;70.51;100141.41;5030006;28;20563;-64
2023/07/07 07:14:32;;;;;;;6.13;4.95;;;;;;;28.50;69.36;100137.25;5030117;28;20025;-64
2023/07/07 07:16:57;;;;;;;7.20;5.57;;;;;;;28.42;66.52;100111.03;5030408;28;20025;-67
2023/07/07 07:19:23;;;;;;;8.20;5.72;;;;;;;28.46;71.23;100117.91;5029923;28;20026;-67
2023/07/07 07:21:48;;;;;;;6.18;5.13;;;;;;;28.55;68.09;100143.25;5030355;28;20041;-70
2023/07/07 07:24:13;;;;;;;9.25;5.88;;;;;;;28.57;70.33;100136.06;5030327;28;20017;-64
2023/07/07 07:26:39;;;;;;;8.98;6.20;;;;;;;28.67;68.06;100139.19;5029814;28;20067;-69
2023/07/07 07:29:04;;;;;;;9.70;5.75;;;;;;;28.62;69.42;100144.69;5030151;28;20029;-63
2023/07/07 07:31:30;;;;;;;9.77;5.93;;;;;;;28.50;70.09;100122.19;5030057;28;20025;-64
2023/07/07 07:34:15;;;;;;;7.43;5.72;;;;;;;28.59;74.23;100136.88;5030176;28;20214;-67
2023/07/07 07:36:40;;;;;;;6.45;5.50;;;;;;;28.52;70.69;100146.03;5010618;28;20087;-63
2023/07/07 07:39:06;;;;;;;6.85;5.55;;;;;;;28.54;71.25;100146.81;5010442;28;20472;-66
2023/07/07 07:41:31;;;;;;;6.63;5.57;;;;;;;28.40;73.36;100142.97;5010190;28;20084;-64
2023/07/07 07:43:57;;;;;;;6.30;5.63;;;;;;;28.44;68.95;100143.69;5010348;28;20038;-68
2023/07/07 07:46:22;;;;;;;10.88;5.80;;;;;;;28.58;69.29;100146.59;5010248;28;20400;-64
2023/07/07 07:48:47;;;;;;;8.10;5.95;;;;;;;28.74;70.76;100145.97;5010132;28;20033;-67
2023/07/07 07:51:13;;;;;;;8.35;5.95;;;;;;;28.65;67.93;100131.28;5010036;28;20029;-70
2023/07/07 07:53:38;;;;;;;6.22;5.50;;;;;;;28.89;68.90;100141.78;5046103;28;20033;-66
2023/07/07 07:56:04;;;;;;;11.27;5.45;;;;;;;29.00;66.76;100141.31;5048817;28;20029;-67
2023/07/07 07:58:29;;;;;;;6.72;5.50;;;;;;;29.11;65.27;100139.03;5053573;28;20049;-65
2023/07/07 08:00:54;;;;;;;5.72;5.07;;;;;;;29.24;65.09;100143.78;5053653;28;20491;-63
2023/07/07 08:03:20;;;;;;;10.32;5.57;;;;;;;29.17;64.05;100098.88;5037228;28;20034;-66
2023/07/07 08:05:45;;;;;;;8.55;5.97;;;;;;;29.41;65.05;100130.59;5029056;28;20032;-67
2023/07/07 08:08:11;;;;;;;8.25;5.78;;;;;;;29.20;64.00;100093.41;5046654;28;20050;-64
2023/07/07 08:10:37;;;;;;;7.57;5.65;;;;;;;29.44;66.16;100138.41;5032466;28;20408;-66
2023/07/07 08:13:02;;;;;;;7.38;5.80;;;;;;;29.60;71.37;100132.38;5033013;28;20025;-67
2023/07/07 08:15:27;;;;;;;7.18;5.50;;;;;;;29.67;63.99;100133.78;5028240;28;20419;-64
2023/07/07 08:17:53;;;;;;;10.30;5.85;;;;;;;29.73;63.05;100140.63;5032042;28;20028;-70
2023/07/07 08:20:19;;;;;;;8.02;5.65;;;;;;;29.59;65.79;100090.75;5029665;28;20033;-64
2023/07/07 08:22:45;;;;;;;8.38;5.20;;;;;;;29.98;62.45;100137.66;5028329;28;20022;-66
2023/07/07 08:25:10;;;;;;;6.88;5.55;;;;;;;30.05;61.13;100143.53;5032542;28;20730;-66
2023/07/07 08:27:36;;;;;;;7.38;5.72;;;;;;;30.04;62.79;100137.34;5030951;28;20025;-67
2023/07/07 08:30:02;;;;;;;8.18;5.30;;;;;;;30.18;63.38;100132.19;5028703;28;20037;-69
2023/07/07 08:32:28;;;;;;;10.80;6.13;;;;;;;30.22;66.48;100132.91;5030899;28;20021;-68
2023/07/07 08:34:54;;;;;;;7.10;6.00;;;;;;;30.29;61.99;100136.13;5031392;28;20427;-66
2023/07/07 08:37:20;;;;;;;8.48;5.45;;;;;;;30.19;58.17;100127.72;5032510;28;20499;-66
2023/07/07 08:39:46;;;;;;;7.65;5.90;;;;;;;30.20;60.21;100131.25;5032505;28;20029;-63
2023/07/07 08:42:39;;;;;;;7.88;6.10;;;;;;;30.26;61.68;100125.63;5032606;28;20087;-66
2023/07/07 08:45:15;;;;;;;9.70;6.35;;;;;;;29.97;62.20;100096.88;5030138;28;20060;-67
2023/07/07 08:48:04;;;;;;;8.60;6.35;;;;;;;30.16;63.67;100128.75;5044369;28;20448;-69
2023/07/07 08:50:45;;;;;;;6.35;5.50;;;;;;;30.30;61.41;100124.53;5013129;28;20040;-67
2023/07/07 08:53:32;;;;;;;8.27;5.80;;;;;;;30.39;59.65;100124.03;5013045;28;20068;-67
2023/07/07 08:56:11;;;;;;;7.13;6.07;;;;;;;30.53;62.00;100126.06;5020597;28;20037;-68
2023/07/07 08:58:53;;;;;;;;;;;;;;;30.60;60.44;100126.56;5018289;28;20045;-66
2023/07/07 09:01:48;;;;;;;7.85;5.78;;;;;;;30.62;57.43;100120.22;5031620;28;20004;-65
2023/07/07 09:04:26;;;;;;;7.45;6.25;;;;;;;30.79;60.75;100116.69;5031945;28;20052;-64
2023/07/07 09:07:13;;;;;;;8.50;5.85;;;;;;;30.79;56.34;100107.81;5031558;28;20033;-69
2023/07/07 09:09:56;;;;;;;8.77;6.18;;;;;;;30.95;62.33;100119.34;5033214;28;20034;-67
2023/07/07 09:12:41;;;;;;;7.07;5.53;;;;;;;30.96;59.66;100112.25;5025290;28;20511;-67
2023/07/07 09:15:24;;;;;;;7.15;5.68;;;;;;;30.93;57.81;100109.72;5014903;28;20128;-67
2023/07/07 09:17:58;;;;;;;9.20;5.47;;;;;;;30.98;56.83;100107.69;5012081;28;20116;-67
2023/07/07 09:20:27;;;;;;;10.88;6.28;;;;;;;30.89;59.69;100105.50;5009965;28;20062;-67
2023/07/07 09:23:09;;;;;;;7.22;5.63;;;;;;;31.03;58.62;100108.31;5024328;28;20029;-67
2023/07/07 09:25:40;;;;;;;7.45;5.60;;;;;;;31.21;56.83;100102.94;5011657;28;20530;-68
2023/07/07 09:28:12;;;;;;;8.68;5.78;;;;;;;31.27;59.24;100091.94;5029752;28;20502;-66
2023/07/07 09:30:41;;;;;;;7.78;5.85;;;;;;;31.28;55.23;100094.50;5026600;28;20039;-68
2023/07/07 09:33:10;;;;;;;;;;;;;;;31.46;56.68;100087.25;5020120;28;20399;-68
2023/07/07 09:35:41;;;;;;;7.93;5.35;;;;;;;31.61;59.01;100085.53;5028647;28;19939;-68
2023/07/07 09:38:15;;;;;;;7.03;5.28;;;;;;;31.90;61.96;100093.72;5013474;28;20092;-67
2023/07/07 09:40:50;;;;;;;6.22;5.63;;;;;;;32.12;52.29;100083.56;5011400;28;20038;-67
2023/07/07 09:43:34;;;;;;;8.27;5.82;;;;;;;31.97;55.01;100078.19;5030610;28;20499;-66
2023/07/07 09:46:37;;;;;;;7.85;5.53;;;;;;;31.88;55.21;100094.75;5031245;28;20033;-67
2023/07/07 09:49:36;;;;;;;8.07;5.68;;;;;;;31.83;55.87;100100.34;5003036;28;20121;-67
2023/07/07 09:52:11;;;;;;;32.20;18.07;;;;;;;31.68;53.79;100120.78;5003537;28;21212;-70
2023/07/07 09:54:38;;;;;;;8.40;6.63;;;;;;;30.15;63.12;100096.88;5007441;28;20277;-67
2023/07/07 09:57:14;;;;;;;8.55;6.57;;;;;;;29.90;65.67;100113.22;5008156;28;20461;-68
2023/07/07 09:59:46;;;;;;;25.58;6.60;;;;;;;29.85;65.82;100105.44;5007877;28;20038;-68
2023/07/07 10:02:15;;;;;;;11.07;5.72;;;;;;;28.90;71.50;100087.72;5000656;28;20033;-66
2023/07/07 10:04:45;;;;;;;18.35;6.95;;;;;;;28.02;82.69;100125.97;5003386;28;20582;-70
2023/07/07 10:07:14;;;;;;;36.67;7.07;;;;;;;25.72;96.22;100153.50;5006790;28;20076;-69
2023/07/07 10:09:39;;;;;;;17.50;7.63;;;;;;;24.20;100.00;100199.81;5008376;28;20105;-70
2023/07/07 10:12:12;;;;;;;16.10;7.72;;;;;;;24.64;100.00;100182.00;5008691;28;20144;-73
2023/07/07 10:14:38;;;;;;;15.68;5.63;;;;;;;24.66;96.10;100185.53;5005101;28;20028;-74
2023/07/07 10:17:09;;;;;;;13.60;5.20;;;;;;;24.67;94.17;100173.19;5008180;28;20624;-72
2023/07/07 10:19:50;;;;;;;17.25;6.53;;;;;;;24.73;97.74;100169.53;5007577;28;20038;-71
2023/07/07 10:22:16;;;;;;;8.38;4.55;;;;;;;24.73;93.04;100165.09;5019349;28;20044;-72
2023/07/07 10:24:43;;;;;;;12.13;5.10;;;;;;;24.50;91.17;100155.97;5008569;28;20034;-71
2023/07/07 10:27:15;;;;;;;15.13;5.28;;;;;;;24.83;99.28;100198.25;5040116;28;20082;-70
2023/07/07 10:29:44;;;;;;;16.33;7.10;;;;;;;23.88;100.00;100193.50;5050298;28;20032;-69
2023/07/07 10:32:15;;;;;;;;;;;;;;;23.26;100.00;100243.09;5050238;28;20028;-69
2023/07/07 10:35:01;;;;;;;15.70;8.70;;;;;;;23.02;100.00;100251.41;5049177;28;19917;-74
2023/07/07 10:37:32;;;;;;;11.20;6.57;;;;;;;23.16;100.00;100264.34;5049818;28;20043;-69
2023/07/07 10:40:00;;;;;;;8.80;6.50;;;;;;;22.95;100.00;100263.78;5050211;28;20391;-69
2023/07/07 10:42:28;;;;;;;13.10;6.35;;;;;;;22.45;100.00;100240.94;5035115;28;20029;-68
2023/07/07 10:44:55;;;;;;;11.05;4.50;;;;;;;21.85;100.00;100155.06;5019136;28;20139;-72
2023/07/07 10:47:25;;;;;;;12.82;4.00;;;;;;;22.30;100.00;100184.13;5010345;28;20515;-72
2023/07/07 10:49:51;;;;;;;8.75;3.00;;;;;;;22.67;100.00;100194.97;5010493;28;20157;-70
2023/07/07 10:52:34;;;;;;;12.52;4.57;;;;;;;22.86;100.00;100196.38;5033500;28;20133;-68
2023/07/07 10:55:02;;;;;;;10.60;4.28;;;;;;;23.17;100.00;100182.69;5009383;28;20034;-67
2023/07/07 10:57:46;;;;;;;33.10;16.55;;;;;;;23.15;100.00;100107.22;5010067;28;20076;-64
2023/07/07 11:00:30;;;;;;;36.65;21.17;;;;;;;23.95;100.00;100155.59;5010241;28;20105;-70
2023/07/07 11:03:38;;;;;;;41.58;22.23;;;;;;;24.22;100.00;100161.97;5011190;28;20091;-65
2023/07/07 11:06:04;;;;;;;15.82;9.40;;;;;;;24.37;100.00;100165.13;5029989;28;20058;-68
2023/07/07 11:08:49;;;;;;;19.98;12.88;;;;;;;24.22;100.00;100147.91;5029678;28;20037;-70
2023/07/07 11:11:24;;;;;;;21.23;12.68;;;;;;;24.28;100.00;100144.25;5023408;28;20034;-66
2023/07/07 11:14:10;;;;;;;24.88;9.88;;;;;;;23.87;100.00;100145.16;5023039;28;20092;-67
2023/07/07 11:16:47;;;;;;;15.13;7.95;;;;;;;24.02;100.00;100149.22;5029937;28;20025;-67
2023/07/07 11:19:34;;;;;;;14.27;6.93;;;;;;;24.14;100.00;100121.72;5029447;28;20472;-71
2023/07/07 11:22:35;;;;;;;12.80;6.47;;;;;;;24.49;100.00;100161.31;5014113;28;20033;-69
2023/07/07 11:25:15;;;;;;;15.55;7.40;;;;;;;24.66;100.00;100158.25;5009722;28;20397;-67
2023/07/07 11:28:00;;;;;;;17.50;7.25;;;;;;;24.80;100.00;100165.78;5009974;28;20026;-68
2023/07/07 11:30:47;;;;;;;17.77;7.18;;;;;;;24.92;100.00;100176.00;5009668;28;20481;-64
2023/07/07 11:33:30;;;;;;;18.23;7.75;;;;;;;24.93;100.00;100174.25;5029251;28;20113;-68